Time;durP1;ratioP1;P1;durP2;ratioP2;P2;SDS_P1;SDS_P2;PMS_P1;PMS_P2;Temp;Humidity;BMP_temperature;BMP_pressure;BME280_temperature;BME280_humidity;BME280_pressure;Samples;Min_cycle;Max_cycle;Signal;HPM_P1;HPM_P2
2022/08/12 00:44:16;;;;;;;1.33;1.20;;;;;;;23.09;40.49;93676.03;6109529;23;20052;-94
2022/08/12 00:46:54;;;;;;;1.52;1.33;;;;;;;23.09;40.53;93678.03;6078090;23;20432;-94
2022/08/12 00:49:22;;;;;;;1.45;1.13;;;;;;;23.10;40.38;93682.28;6126506;23;20076;-94
2022/08/12 00:54:34;;;;;;;1.70;1.30;;;;;;;23.08;40.38;93674.56;6152372;23;20025;-94
2022/08/12 00:57:03;;;;;;;1.80;1.25;;;;;;;23.09;40.39;93681.53;6127195;23;20014;-95
2022/08/12 00:59:29;;;;;;;1.52;1.17;;;;;;;23.09;40.40;93678.03;6152985;23;20017;-95
2022/08/12 01:01:54;;;;;;;1.55;1.23;;;;;;;23.10;40.41;93683.03;6100619;23;20018;-94
2022/08/12 01:12:43;;;;;;;1.33;1.20;;;;;;;23.08;40.71;93680.06;6021891;23;20058;-95
2022/08/12 01:15:10;;;;;;;1.77;1.13;;;;;;;23.08;40.47;93677.31;6014353;23;20019;-95
2022/08/12 01:17:35;;;;;;;1.38;1.08;;;;;;;23.09;40.44;93680.81;5987768;23;20027;-93
2022/08/12 01:20:04;;;;;;;1.23;1.00;;;;;;;23.08;40.69;93682.09;6011809;23;20018;-95
2022/08/12 01:22:50;;;;;;;1.50;1.08;;;;;;;23.08;40.42;93674.56;6015513;23;20015;-95
2022/08/12 01:25:18;;;;;;;1.58;1.23;;;;;;;23.08;40.46;93665.53;6057357;23;20014;-95
2022/08/12 01:27:43;;;;;;;1.50;1.10;;;;;;;23.07;40.54;93672.31;6008798;23;20020;-96
2022/08/12 01:30:10;;;;;;;1.33;0.93;;;;;;;23.07;40.52;93661.28;6005982;23;20030;-94
2022/08/12 01:32:38;;;;;;;1.30;0.90;;;;;;;23.07;40.75;93661.28;6010969;23;20026;-94
2022/08/12 01:35:11;;;;;;;1.50;1.13;;;;;;;23.07;40.55;93664.78;5985181;23;20096;-95
2022/08/12 01:37:56;;;;;;;1.20;1.02;;;;;;;23.06;40.72;93651.53;6010476;23;20019;-95
2022/08/12 01:40:31;;;;;;;1.17;0.98;;;;;;;23.05;40.52;93652.81;5993848;23;20051;-95
2022/08/12 01:42:59;;;;;;;1.02;0.93;;;;;;;23.06;40.45;93648.78;6008832;23;20023;-95
2022/08/12 01:45:25;;;;;;;1.75;1.10;;;;;;;23.05;40.53;93650.81;5989914;23;20023;-94
2022/08/12 01:48:13;;;;;;;1.40;1.10;;;;;;;23.06;40.45;93652.28;6000336;23;20050;-94
2022/08/12 01:51:08;;;;;;;1.05;0.95;;;;;;;23.06;40.51;93637.75;6011906;23;20015;-96
2022/08/12 01:53:57;;;;;;;1.30;0.90;;;;;;;23.05;40.70;93637.00;6012313;23;20078;-94
2022/08/12 01:56:24;;;;;;;1.33;0.98;;;;;;;23.05;40.58;93641.78;6038715;23;20031;-94
2022/08/12 02:01:34;;;;;;;1.23;0.90;;;;;;;23.04;40.31;93627.25;6034918;23;20093;-94
2022/08/12 02:13:32;;;;;;;1.40;1.13;;;;;;;23.02;40.62;93626.31;6128386;23;20095;-94
2022/08/12 02:15:57;;;;;;;1.35;0.95;;;;;;;23.04;40.48;93621.75;6099184;23;20009;-94
2022/08/12 02:18:50;;;;;;;2.08;1.20;;;;;;;23.02;40.65;93618.78;6151620;23;20021;-93
2022/08/12 02:21:19;;;;;;;1.33;1.02;;;;;;;23.03;40.71;93609.22;6112192;23;20013;-94
2022/08/12 02:23:45;;;;;;;1.65;0.93;;;;;;;23.03;40.74;93612.00;6122248;23;20017;-93
2022/08/12 02:26:10;;;;;;;0.80;0.80;;;;;;;23.00;40.81;93610.31;6103087;23;20091;-95
2022/08/12 02:28:36;;;;;;;1.88;1.08;;;;;;;23.01;40.81;93613.78;6103081;23;20011;-94
2022/08/12 02:31:04;;;;;;;1.48;1.10;;;;;;;23.01;40.72;93606.28;6041272;23;20142;-95
2022/08/12 02:33:31;;;;;;;0.98;0.88;;;;;;;23.02;40.60;93607.00;6023229;23;20077;-95
2022/08/12 02:35:56;;;;;;;1.33;1.00;;;;;;;23.02;40.56;93595.97;6040717;23;20018;-94
2022/08/12 02:38:22;;;;;;;1.38;0.95;;;;;;;23.01;40.66;93603.50;6019452;23;20036;-95
2022/08/12 02:40:48;;;;;;;1.00;0.90;;;;;;;23.01;40.67;93609.03;6041720;23;20018;-95
2022/08/12 02:43:19;;;;;;;2.78;1.10;;;;;;;23.02;40.73;93593.97;6019388;23;20029;-95
2022/08/12 02:45:54;;;;;;;1.75;0.80;;;;;;;23.02;40.63;93595.97;6065976;23;20015;-95
2022/08/12 02:48:29;;;;;;;1.15;0.98;;;;;;;23.01;40.84;93591.75;6044342;23;20033;-95
2022/08/12 02:50:56;;;;;;;0.85;0.75;;;;;;;23.00;40.63;93598.53;6013237;23;20451;-94
2022/08/12 02:53:22;;;;;;;1.02;0.85;;;;;;;23.01;40.70;93598.00;6042348;23;20022;-93
2022/08/12 02:55:47;;;;;;;1.25;0.90;;;;;;;23.01;40.78;93602.78;6043813;23;20018;-95
2022/08/12 02:58:13;;;;;;;0.77;0.77;;;;;;;23.00;40.86;93599.28;6044817;23;20038;-94
2022/08/12 03:00:38;;;;;;;0.90;0.80;;;;;;;23.01;40.61;93600.75;6007297;23;20022;-95
2022/08/12 03:03:06;;;;;;;1.00;0.80;;;;;;;23.00;40.76;93595.78;6076372;23;20576;-95
2022/08/12 03:05:34;;;;;;;1.30;1.00;;;;;;;23.00;40.64;93593.75;6102724;23;20020;-94
2022/08/12 03:08:03;;;;;;;1.02;0.80;;;;;;;22.99;40.73;93591.53;6084453;23;20410;-94
2022/08/12 03:10:34;;;;;;;3.17;0.90;;;;;;;23.01;40.51;93602.78;6104191;23;20021;-95
2022/08/12 03:13:00;;;;;;;1.20;0.90;;;;;;;22.99;40.87;93600.53;6105913;23;20017;-94
2022/08/12 03:15:48;;;;;;;0.55;0.55;;;;;;;22.99;40.97;93600.53;6102676;23;20045;-94
2022/08/12 03:18:17;;;;;;;0.93;0.82;;;;;;;23.00;40.89;93587.50;6044072;23;20533;-95
2022/08/12 03:20:44;;;;;;;0.88;0.70;;;;;;;22.99;40.76;93592.28;6012007;23;20017;-94
2022/08/12 03:23:12;;;;;;;1.38;1.00;;;;;;;22.99;40.93;93580.50;6021132;23;20022;-95
2022/08/12 03:25:41;;;;;;;1.45;0.90;;;;;;;22.98;40.71;93576.28;6020376;23;20048;-95
2022/08/12 03:28:11;;;;;;;0.95;0.88;;;;;;;22.97;40.90;93583.78;6019234;23;20018;-95
2022/08/12 03:30:37;;;;;;;1.75;0.70;;;;;;;22.99;40.65;93583.25;6018135;23;20054;-95
2022/08/12 03:33:04;;;;;;;1.50;1.00;;;;;;;22.98;40.63;93579.03;6020996;23;20022;-96
2022/08/12 03:35:32;;;;;;;0.98;0.80;;;;;;;22.98;41.02;93581.78;6021224;23;20093;-95
2022/08/12 03:38:04;;;;;;;1.00;0.90;;;;;;;22.97;40.90;93581.03;6019048;23;20022;-95
2022/08/12 04:02:29;;;;;;;1.33;1.13;;;;;;;22.96;40.77;93590.59;6132151;23;20028;-95
2022/08/12 04:04:55;;;;;;;0.77;0.77;;;;;;;22.96;40.81;93598.84;6130357;23;20013;-93
2022/08/12 04:07:20;;;;;;;0.68;0.65;;;;;;;22.96;40.83;93600.88;6102219;23;20060;-94
2022/08/12 04:09:46;;;;;;;0.98;0.80;;;;;;;22.97;40.75;93596.84;6106453;23;20514;-95
2022/08/12 04:14:57;;;;;;;0.88;0.70;;;;;;;22.98;40.87;93599.06;6145094;23;20025;-95
2022/08/12 04:17:34;;;;;;;1.23;0.88;;;;;;;22.96;40.82;93598.84;6073492;23;20027;-95
2022/08/12 04:19:59;;;;;;;0.82;0.73;;;;;;;23.05;40.73;93590.13;6009441;23;20023;-95
2022/08/12 04:22:29;;;;;;;0.88;0.80;;;;;;;23.05;40.78;93603.19;5977855;23;20050;-95
2022/08/12 04:24:59;;;;;;;1.55;0.82;;;;;;;23.02;40.73;93596.72;5968194;23;20015;-95
2022/08/12 04:27:25;;;;;;;1.00;0.80;;;;;;;23.02;40.80;93590.47;5965945;23;20075;-94
2022/08/12 04:29:51;;;;;;;0.90;0.70;;;;;;;23.03;40.84;93595.44;5982353;23;20071;-94
2022/08/12 04:32:17;;;;;;;0.77;0.73;;;;;;;23.00;41.35;93588.25;5987355;23;20321;-94
2022/08/12 04:34:43;;;;;;;0.80;0.70;;;;;;;23.00;40.88;93601.28;5988506;23;20022;-96
2022/08/12 04:37:09;;;;;;;1.20;0.70;;;;;;;23.02;40.97;93601.50;5963220;23;20100;-93
2022/08/12 04:39:34;;;;;;;1.00;0.60;;;;;;;23.00;40.96;93596.50;5987437;23;20015;-94
2022/08/12 04:42:00;;;;;;;1.05;0.63;;;;;;;23.01;40.79;93602.78;5986752;23;20032;-96
2022/08/12 04:44:26;;;;;;;0.60;0.60;;;;;;;23.00;40.88;93613.06;5960748;23;20015;-95
2022/08/12 04:46:52;;;;;;;0.50;0.50;;;;;;;22.98;41.10;93607.34;5963985;23;20074;-95
2022/08/12 04:49:18;;;;;;;0.73;0.60;;;;;;;22.99;41.17;93608.81;6013418;23;20042;-94
2022/08/12 04:51:43;;;;;;;0.63;0.52;;;;;;;23.02;40.98;93618.03;6068371;23;20018;-95
2022/08/12 04:54:10;;;;;;;0.90;0.80;;;;;;;23.01;40.98;93616.56;6081365;23;20014;-94
2022/08/12 04:56:36;;;;;;;0.85;0.57;;;;;;;23.00;41.19;93615.81;6113582;23;20109;-94
2022/08/12 04:59:01;;;;;;;2.25;0.88;;;;;;;22.99;40.93;93619.84;6049431;23;20026;-94
2022/08/12 05:01:29;;;;;;;1.15;0.55;;;;;;;23.01;40.80;93617.28;6049252;23;20029;-95
2022/08/12 05:03:58;;;;;;;0.40;0.40;;;;;;;23.03;40.70;93620.25;6046523;23;20051;-94
2022/08/12 05:06:24;;;;;;;0.88;0.52;;;;;;;23.00;41.28;93621.31;6068156;23;20445;-95
2022/08/12 05:08:53;;;;;;;0.93;0.65;;;;;;;23.03;41.23;93630.56;6073157;23;20011;-94
2022/08/12 05:11:21;;;;;;;0.77;0.60;;;;;;;23.04;40.85;93626.53;6049927;23;20097;-94
2022/08/12 05:13:48;;;;;;;1.52;0.40;;;;;;;23.02;40.87;93618.78;6052417;23;20028;-93
2022/08/12 05:16:13;;;;;;;0.77;0.43;;;;;;;23.03;40.96;93617.50;6045985;23;20064;-94
2022/08/12 05:18:43;;;;;;;0.28;0.28;;;;;;;23.05;40.95;93625.25;6044833;23;20044;-94
2022/08/12 05:21:09;;;;;;;0.93;0.52;;;;;;;23.07;40.84;93625.44;6049127;23;20025;-95
2022/08/12 05:23:37;;;;;;;1.13;0.40;;;;;;;23.05;41.04;93631.50;6048703;23;20018;-95
2022/08/12 05:26:03;;;;;;;0.32;0.30;;;;;;;23.06;41.00;93626.72;6048472;23;20551;-94
2022/08/12 05:28:29;;;;;;;0.45;0.45;;;;;;;23.09;41.04;93631.16;6049750;23;20453;-93
2022/08/12 05:30:55;;;;;;;0.30;0.30;;;;;;;23.08;40.74;93638.69;6050013;23;20026;-94
2022/08/12 05:33:22;;;;;;;1.17;0.40;;;;;;;23.07;41.06;93634.47;6073030;23;20393;-95
2022/08/12 05:35:48;;;;;;;0.63;0.50;;;;;;;23.10;41.10;93633.41;6049146;23;20026;-94
2022/08/12 05:41:01;;;;;;;0.57;0.40;;;;;;;23.13;40.76;93634.34;6063977;23;20025;-95
2022/08/12 05:43:26;;;;;;;0.70;0.50;;;;;;;23.19;40.71;93632.19;6045039;23;20049;-95
2022/08/12 05:45:52;;;;;;;2.08;0.30;;;;;;;23.17;40.71;93634.72;6050363;23;20028;-95
2022/08/12 05:48:17;;;;;;;0.52;0.40;;;;;;;23.21;40.69;93633.13;6049741;23;20152;-94
2022/08/12 05:50:44;;;;;;;0.47;0.30;;;;;;;23.25;40.64;93625.25;6041640;23;20041;-93
2022/08/12 05:53:09;;;;;;;1.13;0.50;;;;;;;23.23;40.73;93633.31;6046165;23;20060;-94
2022/08/12 05:55:36;;;;;;;0.38;0.38;;;;;;;23.27;40.54;93632.25;6044327;23;20022;-93
2022/08/12 05:58:01;;;;;;;0.55;0.40;;;;;;;23.24;40.61;93623.03;6090425;23;20029;-94
2022/08/12 06:00:30;;;;;;;0.47;0.32;;;;;;;23.28;40.56;93630.97;6071902;23;20021;-93
2022/08/12 06:02:59;;;;;;;1.45;0.38;;;;;;;23.27;40.62;93632.25;6088718;23;20484;-95
2022/08/12 06:05:28;;;;;;;0.88;0.47;;;;;;;23.29;40.46;93637.97;6095381;23;20014;-94
2022/08/12 06:07:54;;;;;;;0.40;0.40;;;;;;;23.30;40.60;93626.41;6097847;23;20044;-94
2022/08/12 06:10:20;;;;;;;2.08;0.30;;;;;;;23.31;40.59;93630.66;6094253;23;20059;-94
2022/08/12 06:12:48;;;;;;;0.40;0.40;;;;;;;23.32;40.45;93632.13;6072623;23;20002;-96
2022/08/12 06:15:17;;;;;;;1.27;0.20;;;;;;;23.35;40.47;93633.81;6072676;23;20010;-94
2022/08/12 06:17:43;;;;;;;0.20;0.20;;;;;;;23.36;40.43;93626.28;6087863;23;20501;-94
2022/08/12 06:20:12;;;;;;;1.05;0.30;;;;;;;23.36;40.56;93626.28;6089618;23;20053;-94
2022/08/12 06:22:38;;;;;;;0.63;0.30;;;;;;;23.38;40.43;93627.22;6097455;23;20524;-93
2022/08/12 06:25:05;;;;;;;0.30;0.30;;;;;;;23.39;40.45;93628.69;6093093;23;20029;-95
2022/08/12 06:27:32;;;;;;;0.15;0.15;;;;;;;23.42;40.53;93640.66;6074712;23;20093;-95
2022/08/12 06:29:57;;;;;;;0.40;0.20;;;;;;;23.40;40.43;93630.16;6072809;23;20033;-94
2022/08/12 06:32:23;;;;;;;0.75;0.30;;;;;;;23.45;40.51;93637.56;6097556;23;20345;-95
2022/08/12 06:34:49;;;;;;;0.47;0.30;;;;;;;23.45;40.60;93640.34;6067710;23;20018;-93
2022/08/12 06:37:17;;;;;;;0.20;0.20;;;;;;;23.50;40.31;93635.97;6092856;23;20024;-93
2022/08/12 06:39:43;;;;;;;0.30;0.30;;;;;;;23.51;40.74;93640.19;6093964;23;20306;-94
2022/08/12 06:44:52;;;;;;;1.08;0.30;;;;;;;23.46;40.63;93636.28;6077443;23;20028;-93
2022/08/12 06:47:18;;;;;;;0.40;0.30;;;;;;;23.47;40.47;93635.00;6095530;23;20022;-93
2022/08/12 06:49:43;;;;;;;0.40;0.30;;;;;;;23.45;40.58;93639.59;6071812;23;20357;-93
2022/08/12 06:52:09;;;;;;;0.68;0.30;;;;;;;23.45;40.58;93634.81;6068532;23;20018;-94
2022/08/12 06:54:34;;;;;;;0.40;0.30;;;;;;;23.43;40.75;93626.31;6096356;23;20034;-94
2022/08/12 06:57:00;;;;;;;0.75;0.30;;;;;;;23.48;40.82;93624.72;6101011;23;20010;-94
2022/08/12 12:09:25;;;;;;;5.10;1.80;;;;;;;23.43;41.28;93571.16;6158249;23;20005;-93
2022/08/12 12:12:05;;;;;;;10.13;2.38;;;;;;;23.37;41.46;93567.81;6093617;23;20115;-93
2022/08/12 12:14:37;;;;;;;7.65;1.85;;;;;;;23.34;41.45;93568.88;6001966;23;20024;-92
2022/08/12 12:17:03;;;;;;;4.57;1.70;;;;;;;23.35;41.45;93564.09;6079662;23;20374;-94
2022/08/12 12:19:34;;;;;;;4.68;2.38;;;;;;;23.36;41.60;93573.88;6024981;23;20101;-93
2022/08/12 12:22:23;;;;;;;4.35;1.95;;;;;;;23.38;41.30;93580.31;6044220;23;20026;-93
2022/08/12 12:25:14;;;;;;;3.47;2.05;;;;;;;23.40;41.58;93577.00;6046252;23;20022;-92
2022/08/12 12:27:57;;;;;;;7.70;1.67;;;;;;;23.43;41.42;93573.16;6074038;23;20362;-92
2022/08/12 12:30:32;;;;;;;4.30;1.80;;;;;;;23.46;40.94;93577.59;6048064;23;20018;-92
2022/08/12 12:33:00;;;;;;;1.77;1.67;;;;;;;23.46;41.30;93581.09;6060563;23;20022;-93
2022/08/12 12:35:29;;;;;;;2.60;1.75;;;;;;;23.47;41.22;93588.09;6031855;23;20094;-93
2022/08/12 12:37:58;;;;;;;5.72;2.30;;;;;;;23.44;41.35;93580.91;5998115;23;20024;-93
2022/08/12 12:40:47;;;;;;;2.25;1.80;;;;;;;23.43;41.26;93584.94;5992501;23;20019;-93
2022/08/12 12:43:13;;;;;;;1.30;1.20;;;;;;;23.44;41.52;93589.19;6049239;23;20064;-91
2022/08/12 12:45:43;;;;;;;2.25;1.35;;;;;;;23.46;41.63;93586.63;6107476;23;20022;-94
2022/08/12 12:48:22;;;;;;;4.05;1.38;;;;;;;23.47;41.36;93579.81;6104652;23;20022;-92
2022/08/12 12:53:42;;;;;;;3.30;1.40;;;;;;;23.46;41.12;93583.88;6134514;23;20507;-93
2022/08/12 12:56:16;;;;;;;2.33;1.13;;;;;;;23.47;41.14;93581.84;6090468;23;20022;-93
2022/08/12 12:58:48;;;;;;;2.08;1.00;;;;;;;23.48;41.15;93581.31;6048539;23;20131;-93
2022/08/12 13:01:17;;;;;;;1.25;1.08;;;;;;;23.47;41.26;93577.06;6043785;23;20025;-93
2022/08/12 13:03:52;;;;;;;1.40;1.30;;;;;;;23.47;41.13;93577.06;6003711;23;20015;-92
2022/08/12 13:06:24;;;;;;;1.23;1.13;;;;;;;23.49;41.25;93569.00;5992347;23;20097;-92
2022/08/12 13:08:54;;;;;;;1.10;0.90;;;;;;;23.51;41.16;93551.91;5955609;23;20031;-93
2022/08/12 13:11:23;;;;;;;1.45;1.33;;;;;;;23.50;41.10;93567.72;5961493;23;20098;-93
2022/08/12 13:13:59;;;;;;;8.63;1.30;;;;;;;23.54;40.97;93572.94;5963805;23;20016;-94
2022/08/12 13:16:33;;;;;;;1.40;1.30;;;;;;;23.49;41.19;93577.28;5932003;23;20709;-93
2022/08/12 13:18:59;;;;;;;2.40;1.15;;;;;;;23.55;40.99;93574.41;5989136;23;20471;-92
2022/08/12 13:21:32;;;;;;;1.52;1.33;;;;;;;23.55;40.92;93563.38;5928813;24;20032;-93
2022/08/12 13:24:09;;;;;;;1.77;1.17;;;;;;;23.55;40.63;93563.38;5956061;24;20016;-93
2022/08/12 13:26:52;;;;;;;1.10;1.00;;;;;;;23.57;40.84;93564.31;5954944;24;20016;-93
2022/08/12 13:29:22;;;;;;;4.38;1.15;;;;;;;23.57;41.20;93563.56;5980374;24;20065;-92
2022/08/12 13:31:56;;;;;;;1.40;1.20;;;;;;;23.60;40.96;93567.28;5969713;24;20020;-92
2022/08/12 13:34:24;;;;;;;1.23;0.98;;;;;;;23.56;41.13;93581.41;5952467;23;20443;-92
2022/08/12 13:36:50;;;;;;;0.90;0.90;;;;;;;23.55;41.13;93580.66;6015011;23;20026;-93
2022/08/12 13:39:34;;;;;;;1.50;1.35;;;;;;;23.56;40.83;93581.41;5986378;23;20015;-92
2022/08/12 13:42:21;;;;;;;0.80;0.80;;;;;;;23.60;40.69;93581.78;6000989;23;20023;-93
2022/08/12 13:44:52;;;;;;;1.83;1.20;;;;;;;23.63;40.67;93566.16;5951313;24;20028;-92
2022/08/12 13:47:20;;;;;;;;;;;;;;;23.56;40.79;93571.09;5960496;23;20080;-92
2022/08/12 13:49:49;;;;;;;1.42;1.20;;;;;;;23.56;40.95;93564.84;5984857;23;20269;-92
2022/08/12 13:52:17;;;;;;;0.98;0.98;;;;;;;23.56;40.96;93571.09;5907405;23;20029;-94
2022/08/12 13:54:46;;;;;;;1.52;1.10;;;;;;;23.61;40.58;93563.94;5938946;24;20008;-93
2022/08/12 13:57:19;;;;;;;2.92;0.90;;;;;;;23.64;40.55;93565.63;5939873;23;20104;-92
2022/08/12 13:59:48;;;;;;;1.85;1.25;;;;;;;23.63;40.75;93561.38;5930190;24;20041;-93
2022/08/12 14:02:22;;;;;;;3.50;1.00;;;;;;;23.61;40.81;93561.19;5885481;24;20029;-92
2022/08/12 14:04:52;;;;;;;0.90;0.90;;;;;;;23.61;40.89;93566.69;5819165;24;20009;-94
2022/08/12 14:07:32;;;;;;;1.23;1.10;;;;;;;23.61;40.75;93574.25;5889630;24;20021;-92
2022/08/12 14:12:48;;;;;;;1.15;0.90;;;;;;;23.60;40.57;93576.25;5877058;24;20093;-93
2022/08/12 14:15:15;;;;;;;1.10;1.00;;;;;;;23.58;40.83;93578.84;5875939;24;20022;-94
2022/08/12 14:17:41;;;;;;;1.00;0.90;;;;;;;23.61;40.88;93572.22;5877227;24;20071;-94
2022/08/12 14:20:13;;;;;;;2.53;0.85;;;;;;;23.63;40.99;93569.66;5902079;24;20021;-92
2022/08/12 14:22:39;;;;;;;1.52;0.82;;;;;;;23.65;40.93;93563.59;5902703;24;20021;-91
2022/08/12 14:25:05;;;;;;;0.90;0.90;;;;;;;23.57;41.34;93564.31;5891278;24;20022;-93
2022/08/12 14:27:31;;;;;;;1.10;1.05;;;;;;;23.65;41.04;93564.34;5889467;24;20030;-92
2022/08/12 14:29:58;;;;;;;0.90;0.90;;;;;;;23.66;40.82;93557.53;5890497;24;20382;-91
2022/08/12 14:32:25;;;;;;;1.42;0.80;;;;;;;23.65;41.13;93569.88;5888318;24;20026;-92
2022/08/12 14:34:59;;;;;;;1.23;1.00;;;;;;;23.66;41.12;93557.53;5887233;24;20022;-92
2022/08/12 14:37:25;;;;;;;1.02;0.93;;;;;;;23.63;41.20;93552.38;5866275;24;20026;-92
2022/08/12 14:39:51;;;;;;;1.00;0.90;;;;;;;23.63;41.19;93555.88;5871949;24;20184;-92
2022/08/12 14:42:23;;;;;;;1.02;0.80;;;;;;;23.67;41.15;93552.75;5859081;24;20027;-93
2022/08/12 14:44:50;;;;;;;1.23;1.05;;;;;;;23.66;41.08;93549.25;5911920;24;20029;-92
2022/08/12 14:47:16;;;;;;;1.35;1.00;;;;;;;23.69;41.42;93550.94;5912295;24;20018;-94
2022/08/12 14:49:44;;;;;;;0.98;0.90;;;;;;;23.69;41.28;93553.69;5891753;24;20019;-92
2022/08/12 14:52:12;;;;;;;1.45;1.00;;;;;;;23.69;41.34;93544.69;5886210;24;20037;-92
2022/08/12 14:54:42;;;;;;;1.10;0.93;;;;;;;23.68;41.23;93548.72;5894888;24;20074;-95
2022/08/12 14:57:10;;;;;;;;;;;;;;;23.65;41.31;93542.25;5925112;24;20100;-92
2022/08/12 15:02:20;;;;;;;1.08;0.82;;;;;;;23.70;41.23;93546.16;5911241;24;20872;-92
2022/08/12 15:04:57;;;;;;;2.17;0.70;;;;;;;23.74;41.32;93541.78;5873412;24;20022;-93
2022/08/12 15:07:26;;;;;;;3.55;1.15;;;;;;;23.74;41.27;93547.31;5846119;24;20089;-92
2022/08/12 15:09:58;;;;;;;2.10;0.77;;;;;;;23.73;41.24;93537.53;5888227;24;20025;-92
2022/08/12 15:12:27;;;;;;;2.25;0.93;;;;;;;23.75;41.21;93540.50;5853167;24;20032;-93
2022/08/12 15:14:52;;;;;;;0.90;0.77;;;;;;;23.77;41.01;93534.44;5917578;24;20017;-93
2022/08/12 15:17:20;;;;;;;1.15;1.05;;;;;;;23.74;41.07;93536.25;5951798;24;20016;-92
2022/08/12 15:19:47;;;;;;;2.75;0.80;;;;;;;23.77;40.94;93531.69;5977456;24;20016;-91
2022/08/12 15:22:15;;;;;;;1.17;0.90;;;;;;;23.79;40.73;93529.13;5912517;24;20060;-92
2022/08/12 15:24:43;;;;;;;1.13;0.88;;;;;;;23.76;40.87;93535.72;5957931;23;20017;-92
2022/08/12 15:27:09;;;;;;;1.92;1.08;;;;;;;23.79;40.86;93538.13;5970316;23;20047;-92
2022/08/12 15:29:45;;;;;;;0.77;0.70;;;;;;;23.81;40.83;93529.31;5949548;24;20722;-91
2022/08/12 15:32:12;;;;;;;1.73;0.93;;;;;;;23.84;40.92;93530.97;5995652;23;20046;-92
2022/08/12 15:34:39;;;;;;;0.82;0.82;;;;;;;23.86;40.82;93536.69;5971527;23;20048;-92
2022/08/12 15:37:04;;;;;;;0.77;0.70;;;;;;;23.84;40.84;93539.97;6001388;23;20021;-92
2022/08/12 15:39:33;;;;;;;3.92;0.88;;;;;;;23.87;40.84;93538.91;5971692;23;20058;-92
2022/08/12 15:42:02;;;;;;;0.90;0.90;;;;;;;23.87;40.78;93541.66;5981074;23;20031;-91
2022/08/12 15:44:30;;;;;;;1.23;0.80;;;;;;;23.85;41.06;93544.22;5977155;24;20356;-92
2022/08/12 15:46:58;;;;;;;2.25;0.80;;;;;;;23.86;40.72;93542.22;5931636;23;20040;-91
2022/08/12 15:49:28;;;;;;;0.60;0.60;;;;;;;23.85;40.96;93547.00;5935616;23;20036;-92
2022/08/12 15:51:54;;;;;;;;;;;;;;;23.80;40.90;93539.63;5990555;23;20519;-92
2022/08/12 15:54:22;;;;;;;1.73;0.90;;;;;;;23.84;40.89;93542.00;5994540;23;19955;-92
2022/08/12 15:56:53;;;;;;;0.73;0.73;;;;;;;23.90;40.74;93542.59;5933398;24;20356;-92
2022/08/12 15:59:20;;;;;;;0.93;0.93;;;;;;;23.90;40.94;93535.06;5884307;24;20024;-92
2022/08/12 16:01:46;;;;;;;0.60;0.60;;;;;;;23.91;40.54;93533.78;5956975;24;20016;-92
2022/08/12 16:04:14;;;;;;;0.55;0.55;;;;;;;23.93;41.02;93531.22;5932164;24;20028;-92
2022/08/12 16:06:40;;;;;;;0.75;0.55;;;;;;;23.95;40.83;93529.94;5995072;23;20024;-92
2022/08/12 16:09:08;;;;;;;1.13;0.75;;;;;;;23.96;40.77;93523.13;5968121;23;20040;-91
2022/08/12 16:11:39;;;;;;;0.73;0.70;;;;;;;23.96;40.77;93531.41;5949969;23;20024;-92
2022/08/12 16:14:14;;;;;;;0.90;0.80;;;;;;;23.95;40.78;93527.91;5969071;24;20004;-92
2022/08/12 16:16:40;;;;;;;1.40;0.98;;;;;;;23.99;40.46;93522.03;5925098;24;20129;-93
2022/08/12 16:19:18;;;;;;;1.92;1.05;;;;;;;23.95;40.66;93527.16;5896924;24;20024;-92
2022/08/12 16:21:46;;;;;;;1.00;0.90;;;;;;;24.01;40.53;93530.53;5873929;24;20507;-92
2022/08/12 16:24:20;;;;;;;0.80;0.80;;;;;;;24.00;40.44;93527.03;5835163;24;20103;-93
2022/08/12 16:26:53;;;;;;;0.98;0.70;;;;;;;24.02;40.65;93523.72;5860446;24;20019;-92
2022/08/12 16:29:32;;;;;;;1.42;0.80;;;;;;;24.00;40.41;93524.25;5842558;24;20022;-92
2022/08/12 16:31:59;;;;;;;1.65;1.17;;;;;;;24.04;40.38;93527.38;5840954;24;20037;-92
2022/08/12 16:34:27;;;;;;;1.63;0.57;;;;;;;24.03;40.44;93522.44;5858314;24;20022;-92
2022/08/12 16:37:00;;;;;;;0.63;0.63;;;;;;;24.04;40.48;93524.63;5833489;24;20074;-92
2022/08/12 16:39:34;;;;;;;0.85;0.75;;;;;;;24.05;40.57;93526.09;5858687;24;20132;-93
2022/08/12 16:42:09;;;;;;;1.67;0.68;;;;;;;24.03;40.46;93527.94;5865138;24;20025;-93
2022/08/12 16:44:36;;;;;;;0.75;0.75;;;;;;;24.01;40.54;93520.22;5828816;24;20039;-94
2022/08/12 16:47:01;;;;;;;0.80;0.80;;;;;;;24.00;40.71;93521.50;5894765;24;20358;-93
2022/08/12 16:49:28;;;;;;;1.88;0.90;;;;;;;24.01;40.60;93527.75;5901898;24;20021;-93
2022/08/12 16:51:55;;;;;;;0.63;0.63;;;;;;;23.97;40.66;93517.06;5920691;24;20021;-92
2022/08/12 16:54:21;;;;;;;0.73;0.73;;;;;;;23.97;40.73;93521.84;5897177;24;20461;-93
2022/08/12 16:56:53;;;;;;;0.70;0.70;;;;;;;23.97;40.55;93535.66;5914369;24;20014;-93
2022/08/12 16:59:22;;;;;;;0.70;0.70;;;;;;;23.95;40.49;93527.16;5916139;24;20104;-93
2022/08/12 17:01:54;;;;;;;1.10;1.00;;;;;;;23.92;40.55;93526.97;5895911;24;20046;-92
2022/08/12 17:04:29;;;;;;;2.22;1.08;;;;;;;23.96;40.79;93534.91;5926642;24;20176;-92
2022/08/12 17:07:00;;;;;;;0.82;0.80;;;;;;;23.90;40.77;93553.66;5904957;24;20021;-92
2022/08/12 17:09:25;;;;;;;0.82;0.73;;;;;;;23.88;40.66;93564.50;5899949;24;20553;-91
2022/08/12 17:11:51;;;;;;;2.42;1.40;;;;;;;23.86;41.08;93589.13;5902276;23;20017;-92
2022/08/12 17:14:17;;;;;;;2.78;0.93;;;;;;;23.85;41.19;93607.00;6007284;23;20912;-95
2022/08/12 17:16:42;;;;;;;0.90;0.80;;;;;;;23.80;41.32;93627.97;5990403;23;20048;-90
2022/08/12 17:19:08;;;;;;;4.72;1.38;;;;;;;23.81;41.53;93639.75;6032598;23;20341;-91
2022/08/12 17:21:36;;;;;;;3.95;1.08;;;;;;;23.77;41.65;93625.53;5990782;23;20117;-93
2022/08/12 17:24:05;;;;;;;1.25;1.00;;;;;;;23.78;41.78;93589.09;5983503;23;20018;-91
2022/08/12 17:26:32;;;;;;;3.63;1.33;;;;;;;23.75;41.62;93579.16;5983495;23;20043;-90
2022/08/12 17:28:58;;;;;;;1.30;1.20;;;;;;;23.77;41.59;93567.56;5987821;23;20022;-90
2022/08/12 17:31:23;;;;;;;4.88;1.10;;;;;;;23.74;41.51;93563.88;6010972;23;20041;-90
2022/08/12 17:33:49;;;;;;;1.20;1.08;;;;;;;23.72;41.43;93552.63;5970543;23;20015;-90
2022/08/12 17:36:14;;;;;;;1.27;0.90;;;;;;;23.67;41.45;93561.78;6008510;23;20030;-89
2022/08/12 17:38:40;;;;;;;1.98;1.17;;;;;;;23.68;41.50;93551.47;6034727;23;20026;-91
2022/08/12 17:41:06;;;;;;;1.02;0.90;;;;;;;23.64;41.49;93534.53;6038870;23;20027;-92
2022/08/12 17:43:31;;;;;;;1.35;1.20;;;;;;;23.65;41.58;93547.03;6092350;23;20029;-91
2022/08/12 17:45:57;;;;;;;2.90;1.10;;;;;;;23.63;41.72;93550.34;6123115;23;20045;-90
2022/08/12 17:48:22;;;;;;;2.10;0.90;;;;;;;23.62;41.48;93553.66;6094219;23;20018;-90
2022/08/12 17:50:49;;;;;;;1.27;1.10;;;;;;;23.64;41.90;93551.09;6119639;23;20021;-91
2022/08/12 17:53:17;;;;;;;3.95;1.30;;;;;;;23.61;41.50;93555.66;6093372;23;20052;-90
2022/08/12 17:55:48;;;;;;;1.45;1.30;;;;;;;23.62;41.55;93559.91;6088772;23;20021;-90
2022/08/12 17:58:26;;;;;;;2.67;1.70;;;;;;;23.61;41.82;93558.44;6094849;23;20036;-90
2022/08/12 18:00:51;;;;;;;3.67;1.45;;;;;;;23.63;42.00;93560.66;6095799;23;20092;-90
2022/08/12 18:03:17;;;;;;;1.50;1.40;;;;;;;23.62;42.10;93556.41;6092748;23;20069;-90
2022/08/12 18:05:43;;;;;;;2.30;1.00;;;;;;;23.62;42.38;93559.16;6122603;23;20334;-90
2022/08/12 18:08:10;;;;;;;1.45;1.20;;;;;;;23.62;42.20;93562.66;6081617;23;20059;-91
2022/08/12 18:13:28;;;;;;;1.92;1.20;;;;;;;23.62;42.36;93548.13;6122019;23;20044;-90
2022/08/12 18:15:57;;;;;;;2.78;1.70;;;;;;;23.63;42.66;93560.66;6116795;23;20052;-90
2022/08/12 18:18:24;;;;;;;1.52;1.40;;;;;;;23.62;42.39;93551.63;6120341;23;20057;-91
2022/08/12 18:20:50;;;;;;;3.08;1.70;;;;;;;23.63;42.38;93563.41;6100855;23;20006;-93
2022/08/12 18:23:16;;;;;;;1.88;1.20;;;;;;;23.62;42.34;93559.16;6118128;23;20040;-91
2022/08/12 18:28:27;;;;;;;1.17;1.08;;;;;;;23.60;42.72;93564.50;6164677;23;20093;-90
2022/08/12 18:30:53;;;;;;;1.20;1.10;;;;;;;23.61;42.67;93568.72;6099511;23;20409;-91
2022/08/12 18:33:23;;;;;;;1.67;1.38;;;;;;;23.61;42.84;93566.69;6146487;23;20014;-91
2022/08/12 18:35:51;;;;;;;1.75;1.45;;;;;;;23.60;42.66;93570.75;6151331;23;20074;-91
2022/08/12 18:38:16;;;;;;;1.25;1.15;;;;;;;23.60;42.41;93572.78;6076651;23;20105;-91
2022/08/12 18:43:27;;;;;;;1.10;1.02;;;;;;;23.60;42.53;93570.03;6128868;23;20051;-91
2022/08/12 18:45:55;;;;;;;1.25;1.15;;;;;;;23.58;42.49;93563.03;6130866;23;20021;-90